Alex, Minnesota
Current Conditions -  °F | °C
As of 6:53 AM on Saturday 22 Nov 2014 (Local Time) from KAXN Reporting Station
Haze Haze  
Wind Chill: -3°   Ceiling: Unl
Heat Index: -3°   Visibility: 6mi
Dew Point: -5°   Wind: 3mph
Humidity: 88%   Direction: 200°SSW
Pressure: 29.7"   Gusts: NA
Location:  45.8551°N, 95.4333°W
Report Text: KAXN 221253Z AUTO 20003KT 6SM BR CLR M03/M05 A2970 RMK AO2 SLP076 T10331050
Loading
Personal Weather Stations






























Interactive Weather Map New forecast layout! Learn more

10-Day Weather Forecast

Advertisements
Track Severe Weather on mobile